Sitka, South Dakota
Current Conditions -  °F | °C
As of 8:52 PM on Thursday 18 Dec 2014 (Local Time) from KMBG Reporting Station
Clear Clear  
Wind Chill: -8°   Ceiling: Unl
Heat Index: -4°   Visibility: 7mi
Dew Point: -6°   Wind: 6mph
Humidity: 91%   Direction: 160°SSE
Pressure: 30.03"   Gusts: NA
Location:  45.4184°N, 100.09°W
Report Text: KMBG 190252Z AUTO 16005KT 7SM CLR M04/M06 A3003 RMK AO2 SLP195 T10441056 53003
Loading
Personal Weather Stations






























Interactive Weather Map New forecast layout! Learn more

10-Day Weather Forecast

Advertisements
Track Severe Weather on mobile